createdAt,value
2022-12-18T00:01:27.675Z,41.40
2022-12-18T00:06:49.823Z,44.35
2022-12-18T00:09:18.317Z,46.03
2022-12-18T00:11:46.074Z,44.07
2022-12-18T00:14:15.112Z,43.42
2022-12-18T00:16:45.668Z,42.17
2022-12-18T00:19:15.654Z,42.88
2022-12-18T00:21:44.800Z,43.95
2022-12-18T00:24:13.325Z,42.67
2022-12-18T00:26:41.604Z,41.92
2022-12-18T00:29:14.537Z,43.33
2022-12-18T00:31:43.083Z,45.67
2022-12-18T00:34:12.541Z,45.03
2022-12-18T00:36:42.476Z,42.40
2022-12-18T00:39:12.279Z,45.03
2022-12-18T00:41:57.985Z,44.28
2022-12-18T00:44:25.784Z,44.38
2022-12-18T00:46:53.568Z,45.40
2022-12-18T00:49:22.481Z,44.50
2022-12-18T00:51:51.756Z,43.55
2022-12-18T00:54:19.906Z,45.55
2022-12-18T00:56:49.813Z,45.92
2022-12-18T00:59:18.423Z,45.92
2022-12-18T01:01:47.041Z,45.40
2022-12-18T01:04:15.952Z,46.53
2022-12-18T01:06:43.748Z,45.45
2022-12-18T01:09:15.115Z,43.38
2022-12-18T01:11:42.965Z,45.47
2022-12-18T01:14:10.863Z,43.63
2022-12-18T01:16:38.656Z,43.80
2022-12-18T01:19:06.514Z,42.15
2022-12-18T01:21:34.599Z,44.30
2022-12-18T01:24:02.392Z,43.45
2022-12-18T01:26:31.583Z,43.67
2022-12-18T01:28:59.648Z,41.97
2022-12-18T01:31:29.513Z,41.73
2022-12-18T01:33:57.761Z,41.15
2022-12-18T01:36:27.086Z,41.00
2022-12-18T01:38:55.156Z,41.90
2022-12-18T01:41:26.512Z,40.72
2022-12-18T01:43:57.889Z,41.15
2022-12-18T01:46:28.872Z,40.55
2022-12-18T01:48:59.839Z,42.63
2022-12-18T01:51:29.461Z,41.05
2022-12-18T01:53:58.146Z,40.38
2022-12-18T01:56:25.936Z,41.13
2022-12-18T01:59:01.565Z,41.85
2022-12-18T02:01:31.188Z,40.70
2022-12-18T02:04:21.526Z,41.33
2022-12-18T02:06:57.119Z,40.05
2022-12-18T02:09:29.825Z,40.67
2022-12-18T02:12:04.009Z,37.60
2022-12-18T02:14:38.864Z,38.80
2022-12-18T02:17:13.453Z,38.30
2022-12-18T02:20:00.520Z,38.50
2022-12-18T02:22:38.384Z,39.83
2022-12-18T02:25:22.290Z,40.13
2022-12-18T02:27:54.458Z,40.97
2022-12-18T02:30:22.724Z,41.22
2022-12-18T02:32:54.082Z,42.30
2022-12-18T02:35:25.784Z,39.17
2022-12-18T02:37:55.902Z,40.53
2022-12-18T02:40:26.764Z,41.55
2022-12-18T02:42:56.143Z,41.17
2022-12-18T02:45:23.959Z,41.80
2022-12-18T02:47:52.204Z,42.05
2022-12-18T02:50:28.810Z,45.08
2022-12-18T02:53:08.221Z,44.85
2022-12-18T02:55:47.859Z,42.97
2022-12-18T02:58:21.616Z,45.20
2022-12-18T03:00:59.697Z,46.72
2022-12-18T03:03:32.264Z,46.38
2022-12-18T03:06:03.836Z,47.10
2022-12-18T03:08:35.990Z,47.75
2022-12-18T03:11:05.571Z,47.40
2022-12-18T03:13:38.840Z,46.30
2022-12-18T03:16:11.273Z,46.25
2022-12-18T03:18:44.591Z,46.28
2022-12-18T03:21:14.092Z,47.10
2022-12-18T03:23:45.538Z,45.13
2022-12-18T03:26:17.500Z,42.35
2022-12-18T03:28:50.663Z,44.03
2022-12-18T03:31:20.483Z,43.90
2022-12-18T03:33:53.736Z,43.83
2022-12-18T03:36:21.624Z,43.33
2022-12-18T03:38:49.468Z,44.60
2022-12-18T03:41:23.177Z,44.33
2022-12-18T03:43:55.672Z,43.13
2022-12-18T03:46:30.243Z,44.33
2022-12-18T03:49:08.061Z,45.45
2022-12-18T03:51:42.747Z,46.97
2022-12-18T03:54:11.936Z,45.58
2022-12-18T03:56:44.381Z,44.75
2022-12-18T03:59:16.914Z,44.45
2022-12-18T04:01:48.919Z,45.78
2022-12-18T04:04:20.021Z,44.00
2022-12-18T04:06:49.956Z,44.58
2022-12-18T04:09:17.732Z,44.38
2022-12-18T04:11:45.711Z,45.43
2022-12-18T04:14:18.020Z,44.28
2022-12-18T04:16:46.475Z,43.83
2022-12-18T04:19:14.460Z,43.53
2022-12-18T04:21:42.456Z,43.88
2022-12-18T04:24:10.333Z,43.25
2022-12-18T04:26:39.209Z,43.47
2022-12-18T04:29:07.020Z,42.53
2022-12-18T04:31:36.185Z,43.08
2022-12-18T04:34:04.057Z,42.50
2022-12-18T04:36:31.926Z,42.63
2022-12-18T04:38:59.697Z,43.05
2022-12-18T04:41:27.470Z,40.55
2022-12-18T04:43:55.246Z,41.40
2022-12-18T04:46:23.068Z,39.67
2022-12-18T04:48:52.242Z,40.90
2022-12-18T04:51:26.092Z,39.47
2022-12-18T04:53:54.479Z,40.47
2022-12-18T04:56:22.532Z,41.45
2022-12-18T04:58:50.313Z,40.30
2022-12-18T05:01:20.045Z,40.35
2022-12-18T05:03:47.959Z,38.58
2022-12-18T05:06:17.111Z,37.47
2022-12-18T05:08:44.875Z,38.38
2022-12-18T05:11:16.586Z,39.17
2022-12-18T05:13:45.512Z,38.85
2022-12-18T05:16:14.562Z,39.10
2022-12-18T05:18:42.432Z,37.95
2022-12-18T05:21:10.236Z,39.03
2022-12-18T05:23:39.672Z,39.28
2022-12-18T05:26:09.070Z,39.38
2022-12-18T05:28:38.089Z,40.28
2022-12-18T05:31:06.720Z,39.28
2022-12-18T05:33:36.000Z,40.67
2022-12-18T05:36:07.191Z,39.42
2022-12-18T05:38:36.903Z,39.85
2022-12-18T05:41:06.933Z,38.75
2022-12-18T05:43:37.371Z,38.80
2022-12-18T05:46:06.915Z,37.60
2022-12-18T05:48:34.936Z,38.33
2022-12-18T05:51:07.893Z,37.78
2022-12-18T05:53:37.279Z,37.90
2022-12-18T05:56:09.562Z,39.45
2022-12-18T05:58:37.631Z,37.27
2022-12-18T06:01:10.832Z,35.72
2022-12-18T06:03:38.836Z,38.53
2022-12-18T06:06:14.358Z,37.58
2022-12-18T06:08:46.146Z,38.35
2022-12-18T06:11:18.001Z,37.85
2022-12-18T06:13:45.753Z,38.50
2022-12-18T06:16:13.563Z,37.67
2022-12-18T06:18:41.397Z,36.65
2022-12-18T06:21:09.242Z,36.35
2022-12-18T06:23:37.912Z,34.80
2022-12-18T06:26:07.425Z,35.85
2022-12-18T06:28:36.532Z,34.90
2022-12-18T06:31:05.170Z,34.83
2022-12-18T06:33:33.421Z,34.55
2022-12-18T06:36:02.759Z,34.50
2022-12-18T06:38:30.681Z,32.22
2022-12-18T06:40:58.480Z,32.27
2022-12-18T06:43:26.417Z,35.35
2022-12-18T06:46:00.924Z,35.20
2022-12-18T06:48:28.912Z,36.03
2022-12-18T06:50:56.808Z,35.03
2022-12-18T06:53:24.759Z,34.20
2022-12-18T06:55:52.625Z,34.90
2022-12-18T06:58:20.863Z,36.25
2022-12-18T07:00:48.687Z,36.85
2022-12-18T07:03:17.820Z,37.00
2022-12-18T07:05:45.581Z,37.50
2022-12-18T07:08:13.441Z,38.15
2022-12-18T07:10:47.484Z,37.72
2022-12-18T07:13:16.031Z,37.40
2022-12-18T07:15:43.913Z,37.10
2022-12-18T07:18:12.440Z,37.40
2022-12-18T07:20:42.752Z,36.50
2022-12-18T07:23:10.485Z,35.78
2022-12-18T07:25:39.290Z,36.28
2022-12-18T07:28:07.099Z,35.17
2022-12-18T07:30:35.204Z,34.58
2022-12-18T07:33:02.977Z,36.08
2022-12-18T07:35:30.732Z,36.45
2022-12-18T07:37:59.864Z,34.63
2022-12-18T07:40:27.617Z,34.03
2022-12-18T07:42:55.502Z,35.17
2022-12-18T07:45:23.326Z,34.13
2022-12-18T07:47:51.036Z,33.40
2022-12-18T07:50:18.897Z,34.75
2022-12-18T07:52:46.749Z,34.03
2022-12-18T07:55:16.046Z,34.20
2022-12-18T07:57:53.404Z,36.45
2022-12-18T08:00:23.322Z,36.00
2022-12-18T08:02:51.239Z,35.65
2022-12-18T08:05:19.393Z,36.17
2022-12-18T08:07:47.242Z,36.90
2022-12-18T08:10:16.616Z,37.90
2022-12-18T08:12:44.472Z,36.17
2022-12-18T08:15:12.765Z,35.28
2022-12-18T08:17:40.531Z,35.50
2022-12-18T08:20:09.503Z,36.70
2022-12-18T08:22:37.408Z,36.50
2022-12-18T08:25:06.489Z,36.05
2022-12-18T08:27:35.824Z,35.80
2022-12-18T08:30:04.226Z,34.58
2022-12-18T08:32:33.732Z,33.78
2022-12-18T08:35:01.642Z,32.78
2022-12-18T08:37:29.481Z,32.25
2022-12-18T08:39:57.421Z,31.57
2022-12-18T08:42:42.589Z,30.88
2022-12-18T08:45:12.609Z,30.15
2022-12-18T08:47:40.377Z,30.17
2022-12-18T08:50:08.678Z,31.70
2022-12-18T08:52:36.439Z,30.98
2022-12-18T08:55:04.337Z,31.05
2022-12-18T08:57:32.161Z,30.10
2022-12-18T09:00:01.838Z,30.52
2022-12-18T09:02:31.386Z,29.40
2022-12-18T09:04:59.313Z,30.48
2022-12-18T09:07:27.455Z,29.80
2022-12-18T09:09:55.752Z,29.00
2022-12-18T09:12:23.610Z,28.65
2022-12-18T09:14:51.457Z,30.77
2022-12-18T09:17:19.323Z,30.95
2022-12-18T09:19:48.588Z,31.17
2022-12-18T09:22:16.598Z,30.38
2022-12-18T09:24:44.629Z,29.95
2022-12-18T09:27:12.403Z,30.50
2022-12-18T09:29:40.507Z,29.25
2022-12-18T09:32:08.278Z,28.38
2022-12-18T09:34:36.236Z,29.00
2022-12-18T09:37:05.504Z,28.27
2022-12-18T09:39:36.250Z,28.70
2022-12-18T09:42:04.318Z,29.35
2022-12-18T09:44:43.022Z,28.73
2022-12-18T09:47:17.027Z,28.10
2022-12-18T09:49:47.627Z,28.33
2022-12-18T09:52:21.271Z,27.50
2022-12-18T09:54:53.855Z,27.42
2022-12-18T09:57:25.381Z,27.75
2022-12-18T09:59:57.705Z,28.52
2022-12-18T10:02:27.878Z,28.67
2022-12-18T10:05:11.404Z,28.67
2022-12-18T10:07:55.248Z,28.88
2022-12-18T10:10:30.809Z,28.35
2022-12-18T10:13:08.362Z,28.70
2022-12-18T10:15:41.691Z,27.48
2022-12-18T10:18:24.012Z,26.60
2022-12-18T10:20:55.663Z,27.05
2022-12-18T10:23:30.225Z,26.88
2022-12-18T10:26:03.314Z,26.73
2022-12-18T10:28:33.151Z,27.70
2022-12-18T10:31:01.208Z,27.65
2022-12-18T10:33:32.535Z,27.33
2022-12-18T10:36:00.998Z,27.33
2022-12-18T10:38:32.801Z,27.15
2022-12-18T10:41:03.496Z,27.60
2022-12-18T10:43:32.932Z,26.67
2022-12-18T10:46:04.457Z,27.23
2022-12-18T10:48:33.647Z,28.02
2022-12-18T10:51:10.721Z,27.95
2022-12-18T10:53:44.605Z,27.25
2022-12-18T10:56:12.510Z,28.08
2022-12-18T10:58:41.509Z,28.85
2022-12-18T11:01:12.823Z,27.98
2022-12-18T11:03:42.630Z,28.70
2022-12-18T11:06:12.743Z,27.35
2022-12-18T11:08:43.456Z,29.52
2022-12-18T11:11:21.831Z,27.92
2022-12-18T11:14:03.813Z,27.67
2022-12-18T11:16:35.407Z,28.83
2022-12-18T11:19:33.620Z,27.77
2022-12-18T11:22:02.688Z,28.70
2022-12-18T11:24:34.800Z,28.40
2022-12-18T11:27:05.543Z,27.98
2022-12-18T11:29:44.814Z,28.35
2022-12-18T11:32:31.080Z,28.17
2022-12-18T11:35:05.225Z,29.65
2022-12-18T11:37:34.926Z,28.77
2022-12-18T11:40:12.473Z,28.00
2022-12-18T11:42:46.637Z,29.98
2022-12-18T11:45:27.881Z,29.20
2022-12-18T11:48:02.555Z,29.70
2022-12-18T11:50:35.885Z,29.25
2022-12-18T11:53:06.395Z,30.35
2022-12-18T11:55:43.441Z,29.27
2022-12-18T11:58:19.628Z,29.63
2022-12-18T12:00:53.280Z,29.58
2022-12-18T12:03:40.499Z,29.88
2022-12-18T12:06:19.051Z,28.27
2022-12-18T12:08:57.564Z,28.92
2022-12-18T12:11:37.028Z,27.33
2022-12-18T12:14:20.110Z,28.20
2022-12-18T12:16:54.146Z,28.02
2022-12-18T12:19:45.545Z,29.67
2022-12-18T12:22:23.593Z,27.45
2022-12-18T12:25:03.569Z,28.73
2022-12-18T12:27:42.067Z,29.92
2022-12-18T12:30:12.631Z,29.73
2022-12-18T12:32:55.406Z,29.40
2022-12-18T12:35:33.936Z,29.48
2022-12-18T12:38:10.149Z,27.40
2022-12-18T12:40:56.618Z,26.40
2022-12-18T12:43:36.329Z,26.58
2022-12-18T12:46:07.805Z,26.92
2022-12-18T12:48:44.165Z,28.05
2022-12-18T12:51:17.740Z,26.95
2022-12-18T12:53:46.843Z,27.20
2022-12-18T12:56:17.524Z,26.55
2022-12-18T12:58:58.213Z,26.42
2022-12-18T13:01:36.019Z,26.73
2022-12-18T13:04:14.750Z,25.80
2022-12-18T13:06:49.203Z,26.98
2022-12-18T13:09:18.015Z,26.70
2022-12-18T13:12:05.554Z,25.70
2022-12-18T13:14:36.957Z,26.70
2022-12-18T13:17:32.885Z,26.25
2022-12-18T13:20:21.680Z,26.88
2022-12-18T13:22:52.265Z,27.30
2022-12-18T13:25:32.416Z,27.80
2022-12-18T13:28:10.257Z,26.07
2022-12-18T13:30:51.738Z,26.80
2022-12-18T13:34:16.521Z,25.77
2022-12-18T13:39:34.160Z,27.00
2022-12-18T13:42:56.541Z,28.00
2022-12-18T13:45:47.929Z,26.20
2022-12-18T13:48:21.280Z,27.15
2022-12-18T13:50:53.927Z,26.73
2022-12-18T13:53:25.737Z,27.13
2022-12-18T13:55:53.850Z,26.70
2022-12-18T13:58:21.669Z,25.50
2022-12-18T14:00:52.330Z,26.83
2022-12-18T14:03:23.300Z,26.10
2022-12-18T14:05:56.928Z,26.38
2022-12-18T14:08:34.205Z,27.23
2022-12-18T14:11:03.393Z,26.88
2022-12-18T14:13:35.872Z,26.88
2022-12-18T14:16:08.106Z,26.17
2022-12-18T14:18:44.481Z,28.08
2022-12-18T14:21:21.588Z,27.48
2022-12-18T14:23:49.388Z,26.02
2022-12-18T14:26:26.292Z,27.20
2022-12-18T14:28:54.752Z,27.73
2022-12-18T14:31:26.136Z,26.75
2022-12-18T14:33:54.589Z,28.08
2022-12-18T14:36:24.433Z,27.73
2022-12-18T14:38:54.630Z,28.08
2022-12-18T14:41:23.746Z,28.08
2022-12-18T14:43:53.129Z,29.38
2022-12-18T14:46:36.487Z,29.23
2022-12-18T14:49:07.342Z,29.70
2022-12-18T14:51:37.892Z,29.17
2022-12-18T14:54:09.067Z,29.88
2022-12-18T14:56:39.239Z,29.52
2022-12-18T14:59:18.054Z,29.02
2022-12-18T15:02:01.585Z,28.70
2022-12-18T15:04:32.672Z,28.55
2022-12-18T15:07:11.794Z,27.40
2022-12-18T15:09:40.495Z,27.93
2022-12-18T15:12:24.561Z,27.83
2022-12-18T15:14:52.306Z,28.27
2022-12-18T15:17:26.082Z,28.20
2022-12-18T15:20:00.754Z,28.63
2022-12-18T15:22:29.855Z,29.17
2022-12-18T15:24:59.098Z,28.45
2022-12-18T15:27:30.492Z,29.67
2022-12-18T15:30:21.165Z,29.20
2022-12-18T15:32:51.313Z,28.40
2022-12-18T15:35:21.843Z,30.42
2022-12-18T15:37:50.689Z,30.35
2022-12-18T15:40:20.687Z,29.20
2022-12-18T15:43:07.225Z,29.37
2022-12-18T15:45:35.572Z,28.90
2022-12-18T15:48:23.084Z,30.60
2022-12-18T15:50:51.821Z,30.40
2022-12-18T15:53:20.311Z,29.83
2022-12-18T15:56:05.790Z,31.50
2022-12-18T15:58:34.733Z,32.00
2022-12-18T16:01:03.313Z,31.23
2022-12-18T16:03:32.752Z,32.33
2022-12-18T16:06:02.929Z,29.70
2022-12-18T16:08:32.221Z,30.20
2022-12-18T16:11:00.249Z,30.75
2022-12-18T16:13:28.123Z,30.50
2022-12-18T16:15:56.030Z,30.55
2022-12-18T16:18:23.877Z,31.30
2022-12-18T16:20:54.259Z,30.55
2022-12-18T16:23:22.173Z,30.47
2022-12-18T16:25:49.974Z,30.42
2022-12-18T16:28:17.748Z,30.42
2022-12-18T16:30:45.768Z,30.23
2022-12-18T16:33:13.642Z,33.70
2022-12-18T16:35:41.696Z,31.55
2022-12-18T16:38:12.045Z,31.20
2022-12-18T16:41:00.716Z,30.73
2022-12-18T16:43:28.520Z,31.38
2022-12-18T16:45:58.173Z,30.95
2022-12-18T16:48:26.274Z,29.85
2022-12-18T16:51:02.000Z,30.40
2022-12-18T16:53:31.364Z,30.47
2022-12-18T16:56:00.288Z,30.70
2022-12-18T16:58:28.098Z,32.05
2022-12-18T17:00:55.947Z,32.70
2022-12-18T17:03:23.797Z,32.73
2022-12-18T17:05:53.289Z,32.83
2022-12-18T17:08:21.421Z,32.27
2022-12-18T17:10:50.551Z,32.92
2022-12-18T17:13:21.460Z,31.90
2022-12-18T17:15:53.486Z,31.92
2022-12-18T17:18:22.797Z,33.72
2022-12-18T17:20:50.658Z,33.20
2022-12-18T17:23:18.460Z,33.13
2022-12-18T17:25:46.225Z,35.28
2022-12-18T17:28:15.339Z,35.05
2022-12-18T17:30:43.206Z,35.95
2022-12-18T17:33:10.962Z,35.70
2022-12-18T17:35:38.694Z,34.75
2022-12-18T17:38:06.550Z,37.78
2022-12-18T17:40:34.725Z,38.77
2022-12-18T17:43:02.801Z,41.33
2022-12-18T17:45:31.998Z,34.20
2022-12-18T17:48:00.287Z,34.53
2022-12-18T17:50:28.233Z,32.25
2022-12-18T17:52:57.798Z,33.88
2022-12-18T17:55:25.611Z,34.08
2022-12-18T17:57:53.738Z,33.55
2022-12-18T18:00:22.356Z,35.28
2022-12-18T18:02:51.587Z,35.08
2022-12-18T18:05:19.411Z,35.33
2022-12-18T18:07:47.218Z,34.65
2022-12-18T18:10:15.010Z,34.83
2022-12-18T18:13:00.226Z,35.80
2022-12-18T18:15:30.184Z,35.28
2022-12-18T18:17:59.346Z,36.67
2022-12-18T18:20:28.488Z,36.15
2022-12-18T18:22:56.561Z,36.70
2022-12-18T18:25:24.368Z,36.78
2022-12-18T18:27:53.377Z,35.47
2022-12-18T18:30:21.324Z,34.87
2022-12-18T18:32:50.203Z,35.58
2022-12-18T18:35:52.287Z,35.85
2022-12-18T18:38:09.840Z,35.97
2022-12-18T18:40:37.742Z,39.05
2022-12-18T18:43:05.671Z,44.90
2022-12-18T18:45:34.586Z,42.35
2022-12-18T18:48:02.620Z,38.78
2022-12-18T18:50:31.813Z,37.90
2022-12-18T18:52:59.668Z,38.45
2022-12-18T18:55:27.836Z,42.88
2022-12-18T18:57:55.704Z,40.88
2022-12-18T19:00:23.701Z,37.15
2022-12-18T19:02:56.287Z,38.78
2022-12-18T19:05:26.885Z,39.78
2022-12-18T19:07:56.736Z,39.33
2022-12-18T19:10:24.604Z,37.40
2022-12-18T19:13:09.935Z,40.33
2022-12-18T19:15:38.091Z,39.88
2022-12-18T19:18:06.191Z,42.60
2022-12-18T19:20:34.285Z,41.83
2022-12-18T19:23:03.550Z,38.75
2022-12-18T19:25:40.634Z,39.40
2022-12-18T19:28:21.904Z,41.88
2022-12-18T19:30:56.359Z,39.65
2022-12-18T19:33:44.394Z,40.57
2022-12-18T19:36:15.489Z,41.45
2022-12-18T19:38:45.579Z,38.97
2022-12-18T19:41:15.131Z,41.45
2022-12-18T19:43:43.085Z,40.40
2022-12-18T19:46:15.045Z,40.65
2022-12-18T19:48:44.070Z,41.10
2022-12-18T19:51:16.026Z,42.58
2022-12-18T19:53:46.026Z,40.80
2022-12-18T19:56:16.002Z,41.28
2022-12-18T19:58:44.739Z,42.60
2022-12-18T20:01:13.497Z,40.08
2022-12-18T20:03:46.627Z,39.17
2022-12-18T20:06:24.648Z,40.42
2022-12-18T20:09:00.548Z,37.90
2022-12-18T20:11:29.273Z,37.58
2022-12-18T20:13:57.325Z,38.65
2022-12-18T20:16:25.192Z,38.17
2022-12-18T20:18:56.539Z,39.20
2022-12-18T20:21:25.130Z,38.00
2022-12-18T20:23:55.565Z,40.65
2022-12-18T20:26:23.867Z,41.53
2022-12-18T20:28:51.648Z,41.40
2022-12-18T20:31:19.548Z,41.65
2022-12-18T20:33:48.672Z,41.60
2022-12-18T20:36:21.215Z,41.42
2022-12-18T20:38:50.833Z,40.60
2022-12-18T20:41:21.825Z,40.55
2022-12-18T20:43:49.887Z,41.85
2022-12-18T20:46:18.614Z,41.70
2022-12-18T20:48:47.657Z,43.28
2022-12-18T20:51:17.459Z,42.17
2022-12-18T20:53:46.250Z,42.65
2022-12-18T20:56:20.155Z,40.90
2022-12-18T20:58:51.340Z,42.30
2022-12-18T21:01:27.619Z,42.03
2022-12-18T21:03:56.115Z,40.45
2022-12-18T21:06:24.681Z,41.75
2022-12-18T21:08:53.708Z,43.28
2022-12-18T21:11:47.305Z,42.88
2022-12-18T21:14:18.436Z,44.67
2022-12-18T21:16:46.487Z,41.38
2022-12-18T21:19:16.278Z,42.30
2022-12-18T21:21:44.996Z,41.65
2022-12-18T21:24:13.335Z,42.03
2022-12-18T21:26:46.128Z,41.97
2022-12-18T21:29:17.452Z,41.30
2022-12-18T21:31:45.972Z,41.42
2022-12-18T21:34:17.176Z,42.92
2022-12-18T21:36:45.431Z,42.80
2022-12-18T21:39:15.087Z,41.75
2022-12-18T21:42:01.338Z,41.13
2022-12-18T21:44:31.028Z,40.60
2022-12-18T21:47:12.273Z,41.65
2022-12-18T21:49:50.268Z,39.53
2022-12-18T21:52:18.086Z,40.25
2022-12-18T21:54:45.970Z,42.53
2022-12-18T21:57:14.242Z,40.72
2022-12-18T21:59:44.291Z,41.67
2022-12-18T22:02:14.813Z,40.70
2022-12-18T22:04:42.798Z,41.85
2022-12-18T22:07:11.461Z,40.83
2022-12-18T22:09:39.473Z,42.28
2022-12-18T22:12:08.860Z,40.45
2022-12-18T22:14:36.761Z,41.35
2022-12-18T22:17:05.872Z,40.95
2022-12-18T22:19:39.623Z,41.58
2022-12-18T22:22:10.498Z,40.57
2022-12-18T22:24:38.270Z,40.63
2022-12-18T22:27:06.062Z,41.63
2022-12-18T22:29:51.132Z,40.17
2022-12-18T22:32:23.398Z,40.78
2022-12-18T22:35:04.530Z,41.53
2022-12-18T22:37:34.988Z,39.33
2022-12-18T22:40:03.831Z,38.65
2022-12-18T22:42:31.864Z,40.92
2022-12-18T22:45:00.197Z,39.60
2022-12-18T22:47:30.655Z,40.20
2022-12-18T22:49:58.689Z,40.00
2022-12-18T22:52:26.613Z,39.25
2022-12-18T22:54:54.631Z,40.03
2022-12-18T22:57:22.722Z,41.00
2022-12-18T22:59:50.719Z,39.97
2022-12-18T23:02:19.036Z,40.88
2022-12-18T23:04:48.610Z,40.75
2022-12-18T23:07:16.729Z,42.15
2022-12-18T23:09:44.930Z,41.10
2022-12-18T23:12:16.630Z,41.75
2022-12-18T23:14:44.779Z,41.60
2022-12-18T23:17:13.353Z,41.55
2022-12-18T23:19:47.183Z,42.08
2022-12-18T23:22:17.892Z,42.17
2022-12-18T23:24:45.686Z,41.45
2022-12-18T23:27:13.509Z,40.95
2022-12-18T23:29:41.340Z,39.90
2022-12-18T23:32:09.349Z,40.53
2022-12-18T23:34:37.120Z,40.70
2022-12-18T23:37:04.960Z,41.95
2022-12-18T23:39:34.056Z,41.15
2022-12-18T23:42:02.030Z,40.83
2022-12-18T23:44:29.796Z,40.28
2022-12-18T23:46:57.645Z,39.70
2022-12-18T23:49:25.462Z,39.23
2022-12-18T23:51:54.946Z,40.63
2022-12-18T23:54:33.089Z,38.67
2022-12-18T23:57:02.881Z,39.28
2022-12-18T23:59:30.614Z,38.63
